sensor_id;sensor_type;location;lat;lon;timestamp;pressure;altitude;pressure_sealevel;temperature;humidity
50087;BME280;35967;50.718;7.050;2023-03-18T00:03:10;100136.34;;;12.03;94.61
50087;BME280;35967;50.718;7.050;2023-03-18T00:13:13;100142.03;;;12.13;94.84
50087;BME280;35967;50.718;7.050;2023-03-18T00:23:18;100140.94;;;12.19;94.09
50087;BME280;35967;50.718;7.050;2023-03-18T00:33:22;100137.13;;;12.29;94.35
50087;BME280;35967;50.718;7.050;2023-03-18T00:43:29;100138.16;;;12.25;94.30
50087;BME280;35967;50.718;7.050;2023-03-18T00:53:36;100137.63;;;12.15;96.31
50087;BME280;35967;50.718;7.050;2023-03-18T01:03:41;100143.69;;;12.14;96.40
50087;BME280;35967;50.718;7.050;2023-03-18T01:13:44;100123.44;;;12.27;95.68
50087;BME280;35967;50.718;7.050;2023-03-18T01:23:49;100133.81;;;12.25;94.83
50087;BME280;35967;50.718;7.050;2023-03-18T01:33:52;100131.25;;;12.25;94.48
50087;BME280;35967;50.718;7.050;2023-03-18T01:43:57;100117.78;;;11.93;95.38
50087;BME280;35967;50.718;7.050;2023-03-18T01:54:05;100122.31;;;11.87;96.01
50087;BME280;35967;50.718;7.050;2023-03-18T02:04:10;100108.25;;;11.72;97.43
50087;BME280;35967;50.718;7.050;2023-03-18T02:14:19;100099.97;;;11.62;97.15
50087;BME280;35967;50.718;7.050;2023-03-18T02:24:32;100100.44;;;11.73;96.69
50087;BME280;35967;50.718;7.050;2023-03-18T02:34:44;100103.97;;;11.71;96.56
50087;BME280;35967;50.718;7.050;2023-03-18T02:44:47;100106.25;;;11.78;97.39
50087;BME280;35967;50.718;7.050;2023-03-18T02:55:10;100108.56;;;11.86;97.02
50087;BME280;35967;50.718;7.050;2023-03-18T03:05:13;100096.56;;;11.85;96.74
50087;BME280;35967;50.718;7.050;2023-03-18T03:15:18;100105.38;;;11.79;96.14
50087;BME280;35967;50.718;7.050;2023-03-18T03:25:28;100112.38;;;11.76;95.69
50087;BME280;35967;50.718;7.050;2023-03-18T03:35:33;100122.81;;;11.73;94.85
50087;BME280;35967;50.718;7.050;2023-03-18T03:45:40;100130.66;;;11.70;94.17
50087;BME280;35967;50.718;7.050;2023-03-18T03:55:46;100144.38;;;11.70;93.61
50087;BME280;35967;50.718;7.050;2023-03-18T04:05:49;100160.03;;;11.65;93.90
50087;BME280;35967;50.718;7.050;2023-03-18T04:15:57;100178.09;;;11.64;93.28
50087;BME280;35967;50.718;7.050;2023-03-18T04:26:01;100190.47;;;11.54;93.47
50087;BME280;35967;50.718;7.050;2023-03-18T04:36:08;100215.50;;;11.50;93.90
50087;BME280;35967;50.718;7.050;2023-03-18T04:46:12;100226.84;;;11.45;93.63
50087;BME280;35967;50.718;7.050;2023-03-18T04:56:20;100225.38;;;11.38;92.92
50087;BME280;35967;50.718;7.050;2023-03-18T05:06:28;100224.84;;;11.28;92.77
50087;BME280;35967;50.718;7.050;2023-03-18T05:16:38;100230.75;;;11.30;92.18
50087;BME280;35967;50.718;7.050;2023-03-18T05:26:42;100237.88;;;11.23;91.83
50087;BME280;35967;50.718;7.050;2023-03-18T05:36:47;100233.00;;;11.14;91.64
50087;BME280;35967;50.718;7.050;2023-03-18T05:46:51;100243.69;;;11.01;91.27
50087;BME280;35967;50.718;7.050;2023-03-18T05:57:19;100253.13;;;11.01;90.67
50087;BME280;35967;50.718;7.050;2023-03-18T06:07:25;100255.72;;;11.01;90.92
50087;BME280;35967;50.718;7.050;2023-03-18T06:17:30;100260.97;;;12.05;88.61
50087;BME280;35967;50.718;7.050;2023-03-18T06:27:33;100259.59;;;14.39;73.36
50087;BME280;35967;50.718;7.050;2023-03-18T06:37:38;100262.53;;;11.84;84.80
50087;BME280;35967;50.718;7.050;2023-03-18T06:47:43;100260.72;;;11.86;85.87
50087;BME280;35967;50.718;7.050;2023-03-18T06:57:48;100264.44;;;12.04;85.28
50087;BME280;35967;50.718;7.050;2023-03-18T07:07:56;100270.78;;;12.44;83.68
50087;BME280;35967;50.718;7.050;2023-03-18T07:18:02;100276.91;;;12.66;82.84
50087;BME280;35967;50.718;7.050;2023-03-18T07:28:05;100291.03;;;12.79;80.97
50087;BME280;35967;50.718;7.050;2023-03-18T07:38:10;100299.22;;;12.90;80.25
50087;BME280;35967;50.718;7.050;2023-03-18T07:48:14;100310.72;;;13.28;79.17
50087;BME280;35967;50.718;7.050;2023-03-18T07:58:18;100317.44;;;13.55;78.19
50087;BME280;35967;50.718;7.050;2023-03-18T08:08:22;100320.91;;;13.77;75.95
50087;BME280;35967;50.718;7.050;2023-03-18T08:18:27;100315.31;;;13.65;76.96
50087;BME280;35967;50.718;7.050;2023-03-18T08:28:30;100331.75;;;13.64;76.75
50087;BME280;35967;50.718;7.050;2023-03-18T08:38:34;100332.63;;;13.85;75.93
50087;BME280;35967;50.718;7.050;2023-03-18T08:48:37;100324.25;;;13.79;76.31
50087;BME280;35967;50.718;7.050;2023-03-18T08:58:43;100326.16;;;13.96;75.48
50087;BME280;35967;50.718;7.050;2023-03-18T09:08:46;100320.97;;;14.16;74.82
50087;BME280;35967;50.718;7.050;2023-03-18T09:18:51;100330.97;;;14.45;72.35
50087;BME280;35967;50.718;7.050;2023-03-18T09:28:54;100327.47;;;14.66;71.11
50087;BME280;35967;50.718;7.050;2023-03-18T09:38:59;100326.66;;;14.66;70.34
50087;BME280;35967;50.718;7.050;2023-03-18T09:49:27;100317.84;;;14.89;69.59
50087;BME280;35967;50.718;7.050;2023-03-18T09:59:38;100318.13;;;15.02;68.45
50087;BME280;35967;50.718;7.050;2023-03-18T10:09:44;100315.47;;;15.40;66.92
50087;BME280;35967;50.718;7.050;2023-03-18T12:51:56;100273.34;;;16.88;58.52
50087;BME280;35967;50.718;7.050;2023-03-18T13:02:57;100273.41;;;16.87;58.27
50087;BME280;35967;50.718;7.050;2023-03-18T13:13:06;100266.97;;;16.78;57.78
50087;BME280;35967;50.718;7.050;2023-03-18T13:23:19;100262.13;;;16.72;59.46
50087;BME280;35967;50.718;7.050;2023-03-18T13:33:48;100268.63;;;16.47;61.38
50087;BME280;35967;50.718;7.050;2023-03-18T13:43:55;100258.56;;;16.41;60.95
50087;BME280;35967;50.718;7.050;2023-03-18T13:54:02;100266.13;;;16.46;61.93
50087;BME280;35967;50.718;7.050;2023-03-18T14:04:29;100254.78;;;16.47;62.25
50087;BME280;35967;50.718;7.050;2023-03-18T14:15:24;100253.88;;;16.48;62.33
50087;BME280;35967;50.718;7.050;2023-03-18T14:25:38;100244.81;;;16.55;62.33
50087;BME280;35967;50.718;7.050;2023-03-18T14:35:49;100234.94;;;16.62;57.78
50087;BME280;35967;50.718;7.050;2023-03-18T14:45:57;100231.75;;;16.72;56.79
50087;BME280;35967;50.718;7.050;2023-03-18T14:56:03;100215.28;;;17.20;54.94
50087;BME280;35967;50.718;7.050;2023-03-18T15:06:07;100210.59;;;17.11;53.49
50087;BME280;35967;50.718;7.050;2023-03-18T15:16:22;100215.91;;;17.09;53.22
50087;BME280;35967;50.718;7.050;2023-03-18T15:26:29;100212.94;;;17.15;53.32
50087;BME280;35967;50.718;7.050;2023-03-18T15:36:42;100220.44;;;17.06;53.13
50087;BME280;35967;50.718;7.050;2023-03-18T15:46:45;100220.50;;;16.88;53.40
50087;BME280;35967;50.718;7.050;2023-03-18T15:56:50;100219.34;;;16.78;53.92
50087;BME280;35967;50.718;7.050;2023-03-18T16:06:56;100219.50;;;16.59;54.05
50087;BME280;35967;50.718;7.050;2023-03-18T16:17:01;100227.56;;;16.54;53.75
50087;BME280;35967;50.718;7.050;2023-03-18T16:27:04;100231.41;;;16.47;54.04
50087;BME280;35967;50.718;7.050;2023-03-18T16:37:17;100240.88;;;16.48;53.02
50087;BME280;35967;50.718;7.050;2023-03-18T16:47:24;100250.34;;;16.49;53.79
50087;BME280;35967;50.718;7.050;2023-03-18T16:57:29;100268.47;;;16.50;53.62
50087;BME280;35967;50.718;7.050;2023-03-18T17:07:32;100269.78;;;16.42;52.45
50087;BME280;35967;50.718;7.050;2023-03-18T17:17:39;100272.94;;;16.31;52.19
50087;BME280;35967;50.718;7.050;2023-03-18T17:27:44;100280.94;;;16.10;52.00
50087;BME280;35967;50.718;7.050;2023-03-18T17:37:50;100283.56;;;15.92;51.51
50087;BME280;35967;50.718;7.050;2023-03-18T17:48:01;100294.94;;;15.90;52.24
50087;BME280;35967;50.718;7.050;2023-03-18T17:58:16;100295.50;;;15.77;53.15
50087;BME280;35967;50.718;7.050;2023-03-18T18:08:21;100307.34;;;15.66;53.91
50087;BME280;35967;50.718;7.050;2023-03-18T18:18:27;100306.31;;;15.51;54.40
50087;BME280;35967;50.718;7.050;2023-03-18T18:28:32;100307.81;;;15.37;54.71
50087;BME280;35967;50.718;7.050;2023-03-18T18:38:38;100315.13;;;15.29;55.26
50087;BME280;35967;50.718;7.050;2023-03-18T18:49:05;100319.75;;;15.22;55.17
50087;BME280;35967;50.718;7.050;2023-03-18T18:59:18;100318.03;;;15.23;55.52
50087;BME280;35967;50.718;7.050;2023-03-18T19:09:25;100322.31;;;15.24;55.68
50087;BME280;35967;50.718;7.050;2023-03-18T19:19:32;100334.56;;;15.20;56.17
50087;BME280;35967;50.718;7.050;2023-03-18T19:29:36;100331.59;;;15.28;56.19
50087;BME280;35967;50.718;7.050;2023-03-18T19:39:40;100337.59;;;15.11;56.63
50087;BME280;35967;50.718;7.050;2023-03-18T19:49:43;100348.50;;;14.98;57.01
50087;BME280;35967;50.718;7.050;2023-03-18T19:59:48;100350.19;;;14.99;57.06
50087;BME280;35967;50.718;7.050;2023-03-18T20:09:53;100357.03;;;15.20;60.26
50087;BME280;35967;50.718;7.050;2023-03-18T20:19:59;100366.94;;;15.11;57.88
50087;BME280;35967;50.718;7.050;2023-03-18T20:30:08;100367.00;;;14.91;57.74
50087;BME280;35967;50.718;7.050;2023-03-18T20:40:24;100369.38;;;14.76;57.77
50087;BME280;35967;50.718;7.050;2023-03-18T20:50:28;100371.50;;;14.87;57.50
50087;BME280;35967;50.718;7.050;2023-03-18T21:00:34;100368.28;;;14.82;57.11
50087;BME280;35967;50.718;7.050;2023-03-18T21:10:37;100371.28;;;14.92;56.97
50087;BME280;35967;50.718;7.050;2023-03-18T21:20:42;100362.03;;;14.86;56.94
50087;BME280;35967;50.718;7.050;2023-03-18T21:30:47;100360.63;;;14.79;56.55
50087;BME280;35967;50.718;7.050;2023-03-18T21:40:52;100365.69;;;14.82;56.90
50087;BME280;35967;50.718;7.050;2023-03-18T21:50:56;100360.81;;;14.74;57.10
50087;BME280;35967;50.718;7.050;2023-03-18T22:01:00;100359.22;;;14.72;57.39
50087;BME280;35967;50.718;7.050;2023-03-18T22:11:04;100361.88;;;14.70;57.42
50087;BME280;35967;50.718;7.050;2023-03-18T22:21:16;100358.22;;;14.74;58.36
50087;BME280;35967;50.718;7.050;2023-03-18T22:31:22;100347.09;;;14.51;58.45
50087;BME280;35967;50.718;7.050;2023-03-18T22:41:46;100350.81;;;14.46;58.79
50087;BME280;35967;50.718;7.050;2023-03-18T22:51:50;100338.34;;;14.54;58.63
50087;BME280;35967;50.718;7.050;2023-03-18T23:01:55;100351.97;;;14.39;59.10
50087;BME280;35967;50.718;7.050;2023-03-18T23:11:59;100344.78;;;14.45;58.93
50087;BME280;35967;50.718;7.050;2023-03-18T23:22:05;100353.91;;;14.54;59.13
50087;BME280;35967;50.718;7.050;2023-03-18T23:32:08;100355.84;;;14.49;59.22
50087;BME280;35967;50.718;7.050;2023-03-18T23:42:13;100378.72;;;14.18;61.57
50087;BME280;35967;50.718;7.050;2023-03-18T23:52:17;100380.50;;;13.96;62.25
